Time;durP1;ratioP1;P1;durP2;ratioP2;P2;SDS_P1;SDS_P2;PMS_P1;PMS_P2;Temp;Humidity;BMP_temperature;BMP_pressure;BME280_temperature;BME280_humidity;BME280_pressure;Samples;Min_cycle;Max_cycle;Signal;HPM_P1;HPM_P2
2024/02/19 00:00:09;;;;;;;;;14.33;12.00;;;;;-143.90;100.00;77213.25;4964090;28;101397;-74
2024/02/19 00:02:36;;;;;;;;;17.00;13.67;;;;;-143.90;100.00;77217.41;4963138;28;103584;-74
2024/02/19 00:05:04;;;;;;;;;17.00;14.00;;;;;-143.90;100.00;77215.34;4960018;28;101887;-74
2024/02/19 00:07:31;;;;;;;;;26.67;19.67;;;;;-143.90;100.00;77223.59;4956801;28;101351;-74
2024/02/19 00:09:58;;;;;;;;;20.67;14.33;;;;;-143.90;100.00;77223.59;4962402;28;101591;-73
2024/02/19 00:12:25;;;;;;;;;14.67;11.00;;;;;-143.90;100.00;77215.34;4961598;28;103568;-73
2024/02/19 00:14:52;;;;;;;;;21.67;15.00;;;;;-143.90;100.00;77221.53;4960974;28;102165;-73
2024/02/19 00:17:18;;;;;;;;;19.00;12.67;;;;;-143.90;100.00;77219.47;4965740;28;102018;-73
2024/02/19 00:19:45;;;;;;;;;18.33;11.33;;;;;-143.90;100.00;77207.06;4944695;28;102493;-73
2024/02/19 00:22:12;;;;;;;;;16.67;15.00;;;;;-143.90;100.00;77207.06;4959553;28;103504;-73
2024/02/19 00:24:39;;;;;;;;;18.33;16.00;;;;;-143.90;100.00;77205.00;4962019;28;101894;-73
2024/02/19 00:27:07;;;;;;;;;16.67;13.00;;;;;-143.90;100.00;77198.78;4950501;28;101556;-74
2024/02/19 00:29:33;;;;;;;;;13.00;12.00;;;;;-143.90;100.00;77196.72;4959393;28;102084;-74
2024/02/19 00:32:00;;;;;;;;;15.33;12.00;;;;;-143.90;100.00;77198.78;4985719;28;103522;-72
2024/02/19 00:34:27;;;;;;;;;18.00;12.33;;;;;-143.90;100.00;77180.16;4956856;28;102529;-72
2024/02/19 00:36:54;;;;;;;;;15.00;11.00;;;;;-143.90;100.00;77176.03;4961015;28;102372;-74
2024/02/19 00:39:21;;;;;;;;;14.33;11.33;;;;;-143.90;100.00;77171.91;4957819;28;101932;-74
2024/02/19 00:41:47;;;;;;;;;7.67;7.67;;;;;-143.90;100.00;77169.81;4953127;28;103682;-74
2024/02/19 00:44:14;;;;;;;;;8.00;7.00;;;;;-143.90;100.00;77169.81;4958894;28;102431;-74
2024/02/19 00:46:40;;;;;;;;;12.00;10.33;;;;;-143.90;100.00;77165.69;4960678;28;102071;-75
2024/02/19 00:49:07;;;;;;;;;14.33;11.67;;;;;-143.90;100.00;77161.56;4943655;28;102671;-73
2024/02/19 00:51:34;;;;;;;;;10.00;9.00;;;;;-143.90;100.00;77159.47;4914262;28;103841;-73
2024/02/19 00:54:01;;;;;;;;;15.00;13.00;;;;;-143.90;100.00;77157.41;4952960;28;101512;-73
2024/02/19 00:56:28;;;;;;;;;13.67;9.00;;;;;-143.90;100.00;77157.41;4951240;28;101945;-73
2024/02/19 00:58:54;;;;;;;;;7.67;7.67;;;;;-143.90;100.00;77155.34;4956298;28;102016;-73
2024/02/19 01:01:21;;;;;;;;;15.33;12.33;;;;;-143.90;100.00;77155.34;4947188;28;103614;-74
2024/02/19 01:03:48;;;;;;;;;16.00;12.33;;;;;-143.90;100.00;77155.34;4854970;28;102001;-74
2024/02/19 01:06:15;;;;;;;;;12.33;11.00;;;;;-143.90;100.00;77157.41;4951512;28;102637;-74
2024/02/19 01:08:42;;;;;;;;;25.33;14.00;;;;;-143.90;100.00;77161.56;4952689;28;101731;-74
2024/02/19 01:11:10;;;;;;;;;17.67;13.33;;;;;-143.90;100.00;77153.28;4952773;28;103481;-74
2024/02/19 01:13:39;;;;;;;;;13.67;9.33;;;;;-143.90;100.00;77157.41;4935750;28;104868;-73
2024/02/19 01:16:06;;;;;;;;;11.33;11.33;;;;;-143.90;100.00;77157.41;4962449;28;101470;-74
2024/02/19 01:18:33;;;;;;;;;17.67;12.00;;;;;-143.90;100.00;77157.41;4961875;28;101593;-73
2024/02/19 01:21:00;;;;;;;;;16.00;11.67;;;;;-143.90;100.00;77157.41;4948933;28;103346;-74
2024/02/19 01:23:27;;;;;;;;;9.00;8.67;;;;;-143.90;100.00;77155.34;4941292;28;102651;-74
2024/02/19 01:25:53;;;;;;;;;13.33;11.00;;;;;-143.90;100.00;77147.06;4969405;28;101913;-73
2024/02/19 01:28:20;;;;;;;;;17.33;13.33;;;;;-143.90;100.00;77145.00;4978658;28;102772;-73
2024/02/19 01:30:47;;;;;;;;;12.00;10.33;;;;;-143.90;100.00;77140.88;4949428;28;103536;-73
2024/02/19 01:33:14;;;;;;;;;9.00;7.67;;;;;-143.90;100.00;77145.00;4960021;27;101689;-73
2024/02/19 01:35:41;;;;;;;;;13.00;10.33;;;;;-143.90;100.00;77136.72;4949343;28;101902;-72
2024/02/19 01:38:07;;;;;;;;;11.67;9.33;;;;;-143.90;100.00;77124.31;4964786;28;101553;-73
2024/02/19 01:40:34;;;;;;;;;9.67;8.00;;;;;-143.90;100.00;77126.38;4965767;28;103538;-74
2024/02/19 01:43:02;;;;;;;;;12.67;8.00;;;;;-143.90;100.00;77124.31;4966636;28;102065;-73
2024/02/19 01:45:29;;;;;;;;;11.33;9.00;;;;;-143.90;100.00;77132.59;4959948;28;101872;-74
2024/02/19 01:47:58;;;;;;;;;9.00;9.00;;;;;-143.90;100.00;77126.38;4966995;28;101887;-73
2024/02/19 01:50:29;;;;;;;;;17.33;11.67;;;;;-143.90;100.00;77122.25;4963626;28;107943;-73
2024/02/19 01:52:57;;;;;;;;;16.00;12.00;;;;;-143.90;100.00;77116.03;4968713;27;103335;-73
2024/02/19 01:55:28;;;;;;;;;9.00;8.00;;;;;-143.90;100.00;77118.13;4954096;28;104843;-74
2024/02/19 01:57:56;;;;;;;;;13.33;8.67;;;;;-143.90;100.00;77107.78;4964209;28;102021;-73
2024/02/19 02:00:23;;;;;;;;;13.00;10.33;;;;;-143.90;100.00;77103.63;4954969;28;108173;-73
2024/02/19 02:02:51;;;;;;;;;18.00;12.00;;;;;-143.90;100.00;77099.50;4938421;28;101477;-74
2024/02/19 02:05:18;;;;;;;;;15.00;12.00;;;;;-143.90;100.00;77093.28;4949710;28;101514;-73
2024/02/19 02:07:44;;;;;;;;;17.33;15.00;;;;;-143.90;100.00;77082.94;4943092;28;102267;-73
2024/02/19 02:10:11;;;;;;;;;18.33;12.67;;;;;-143.90;100.00;77078.81;4957040;28;103438;-73
2024/02/19 02:12:37;;;;;;;;;18.00;13.00;;;;;-143.90;100.00;77072.59;4955982;28;101623;-73
2024/02/19 02:15:05;;;;;;;;;18.00;16.67;;;;;-143.90;100.00;77062.25;4939252;28;101629;-73
2024/02/19 02:17:31;;;;;;;;;26.67;16.33;;;;;-143.90;100.00;77060.19;4951033;28;101551;-73
2024/02/19 02:19:58;;;;;;;;;15.00;14.33;;;;;-143.90;100.00;77049.84;4946208;28;103530;-73
2024/02/19 02:22:25;;;;;;;;;15.67;11.00;;;;;-143.90;100.00;77041.59;4962913;28;102336;-73
2024/02/19 02:24:52;;;;;;;;;18.00;14.33;;;;;-143.90;100.00;77037.44;4952273;28;101902;-73
2024/02/19 02:27:19;;;;;;;;;23.00;16.67;;;;;-143.90;100.00;77025.03;4962747;28;101878;-73
2024/02/19 02:29:46;;;;;;;;;16.00;15.00;;;;;-143.90;100.00;77022.97;4949464;28;103496;-73
2024/02/19 02:32:12;;;;;;;;;14.33;9.00;;;;;-143.90;100.00;77014.69;4961438;28;101818;-73
2024/02/19 02:34:39;;;;;;;;;13.00;10.33;;;;;-143.90;100.00;77008.50;4962330;28;101464;-73
2024/02/19 02:37:06;;;;;;;;;15.00;11.67;;;;;-143.90;100.00;77000.22;4963932;28;103056;-73
2024/02/19 02:39:32;;;;;;;;;11.00;9.67;;;;;-143.90;100.00;76991.94;4945846;28;103599;-73
2024/02/19 02:41:59;;;;;;;;;22.33;18.00;;;;;-143.90;100.00;76985.75;4911816;28;102568;-74
2024/02/19 02:44:26;;;;;;;;;15.67;13.33;;;;;-143.90;100.00;76977.47;4957135;28;101880;-73
2024/02/19 02:46:52;;;;;;;;;18.00;12.67;;;;;-143.90;100.00;76979.53;4978631;28;101522;-74
2024/02/19 02:49:19;;;;;;;;;12.00;11.33;;;;;-143.90;100.00;76971.25;4944803;28;103550;-73
2024/02/19 02:51:46;;;;;;;;;16.00;13.00;;;;;-143.90;100.00;76969.19;4922617;28;102391;-73
2024/02/19 02:54:13;;;;;;;;;8.33;8.00;;;;;-143.90;100.00;76969.19;4956165;28;101939;-73
2024/02/19 02:56:39;;;;;;;;;15.67;13.67;;;;;-143.90;100.00;76967.13;4952472;28;102208;-73
2024/02/19 02:59:06;;;;;;;;;19.00;16.00;;;;;-143.90;100.00;76952.66;4936412;28;103511;-73
2024/02/19 03:01:32;;;;;;;;;24.00;22.00;;;;;-143.90;100.00;76950.56;4976443;28;101616;-73
2024/02/19 03:03:59;;;;;;;;;19.00;15.00;;;;;-143.90;100.00;76950.56;4939521;28;102047;-72
2024/02/19 03:06:26;;;;;;;;;28.00;21.33;;;;;-143.90;100.00;76954.72;4943565;28;101794;-72
2024/02/19 03:08:53;;;;;;;;;51.67;38.33;;;;;-143.90;100.00;76963.00;4957569;28;103443;-72
2024/02/19 03:11:21;;;;;;;;;46.33;36.00;;;;;-143.90;100.00;76979.53;4954061;28;102236;-73
2024/02/19 03:13:49;;;;;;;;;41.00;33.33;;;;;-143.90;100.00;77004.34;4954091;28;101679;-74
2024/02/19 03:16:17;;;;;;;;;39.00;33.67;;;;;-143.90;100.00;77008.50;4961029;28;104299;-73
2024/02/19 03:18:44;;;;;;;;;52.33;44.00;;;;;-143.90;100.00;77016.75;4962212;28;103386;-73
2024/02/19 03:21:12;;;;;;;;;46.33;40.33;;;;;-143.90;100.00;77012.63;4954295;28;101551;-74
2024/02/19 03:23:48;;;;;;;;;45.67;36.00;;;;;-143.90;100.00;77018.84;4934361;28;102273;-74
2024/02/19 03:26:15;;;;;;;;;39.33;29.00;;;;;-143.90;100.00;77012.63;4950412;28;101757;-73
2024/02/19 03:28:50;;;;;;;;;29.33;24.00;;;;;-143.90;100.00;77002.28;4952755;28;103373;-73
2024/02/19 03:31:18;;;;;;;;;27.33;20.33;;;;;-143.90;100.00;77000.22;4965479;28;102341;-73
2024/02/19 03:33:46;;;;;;;;;40.33;29.67;;;;;-143.90;100.00;76991.94;4935753;28;102169;-73
2024/02/19 03:36:12;;;;;;;;;35.00;25.33;;;;;-143.90;100.00;76987.81;4945051;28;101381;-73
2024/02/19 03:38:41;;;;;;;;;26.33;24.33;;;;;-143.90;100.00;76971.25;4952603;28;103329;-73
2024/02/19 03:41:08;;;;;;;;;33.00;24.33;;;;;-143.90;100.00;76963.00;4937264;28;102106;-73
2024/02/19 03:43:34;;;;;;;;;29.00;25.67;;;;;-143.90;100.00;76960.91;4962206;28;102062;-73
2024/02/19 03:46:04;;;;;;;;;23.67;21.33;;;;;-143.90;100.00;76952.66;4952315;28;103559;-72
2024/02/19 03:48:31;;;;;;;;;24.67;18.00;;;;;-143.90;100.00;76938.16;4938328;28;109355;-73
2024/02/19 03:50:58;;;;;;;;;29.33;22.33;;;;;-143.90;100.00;76934.03;4961435;28;101696;-73
2024/02/19 03:53:25;;;;;;;;;29.00;27.33;;;;;-143.90;100.00;76938.16;4963729;28;101840;-73
2024/02/19 03:55:52;;;;;;;;;37.33;29.33;;;;;-143.90;100.00;76938.16;4944604;28;101698;-73
2024/02/19 03:58:18;;;;;;;;;34.33;28.33;;;;;-143.90;100.00;76934.03;4947642;28;103341;-72
2024/02/19 04:00:45;;;;;;;;;50.33;40.67;;;;;-143.90;100.00;76940.25;4971817;28;102070;-73
2024/02/19 04:03:12;;;;;;;;;40.67;32.33;;;;;-143.90;100.00;76934.03;4945068;28;102023;-73
2024/02/19 04:05:38;;;;;;;;;43.33;31.67;;;;;-143.90;100.00;76938.16;4932087;28;101929;-73
2024/02/19 04:08:05;;;;;;;;;40.33;29.00;;;;;-143.90;100.00;76923.69;4950969;28;103675;-73
2024/02/19 04:10:35;;;;;;;;;39.33;32.00;;;;;-143.90;100.00;76909.22;4955024;28;101821;-73
2024/02/19 04:13:01;;;;;;;;;27.33;24.33;;;;;-143.90;100.00;76896.81;4954303;28;103263;-73
2024/02/19 04:15:28;;;;;;;;;25.33;21.67;;;;;-143.90;100.00;76882.31;4951572;28;101783;-73
2024/02/19 04:17:55;;;;;;;;;29.67;18.00;;;;;-143.90;100.00;76880.25;4945097;28;103428;-73
2024/02/19 04:20:21;;;;;;;;;15.67;14.33;;;;;-143.90;100.00;76859.56;4945469;28;101914;-73
2024/02/19 04:22:48;;;;;;;;;20.00;14.67;;;;;-143.90;100.00;76851.31;4962181;28;101831;-73
2024/02/19 04:25:15;;;;;;;;;15.00;13.00;;;;;-143.90;100.00;76843.03;4963305;28;102193;-72
2024/02/19 04:27:41;;;;;;;;;12.33;10.33;;;;;-143.90;100.00;76830.63;4948326;28;103489;-72
2024/02/19 04:30:08;;;;;;;;;10.33;8.67;;;;;-143.90;100.00;76818.22;4946712;28;102506;-72
2024/02/19 04:32:35;;;;;;;;;13.33;9.67;;;;;-143.90;100.00;76812.00;4963950;28;101684;-73
2024/02/19 04:35:02;;;;;;;;;9.00;8.67;;;;;-143.90;100.00;76799.59;4964996;28;101725;-73
2024/02/19 04:37:30;;;;;;;;;11.00;9.00;;;;;-143.90;100.00;76793.38;4967682;28;103241;-73
2024/02/19 04:39:57;;;;;;;;;9.00;8.33;;;;;-143.90;100.00;76783.03;4942976;28;101679;-73
2024/02/19 04:42:23;;;;;;;;;17.67;9.67;;;;;-143.90;100.00;76774.78;4964113;28;101546;-73
2024/02/19 04:44:50;;;;;;;;;9.67;8.00;;;;;-143.90;100.00;76768.56;4952843;28;101889;-73
2024/02/19 04:47:16;;;;;;;;;15.33;12.67;;;;;-143.90;100.00;76768.56;4956444;28;103281;-73
2024/02/19 04:49:43;;;;;;;;;12.00;11.00;;;;;-143.90;100.00;76760.28;4935979;28;101644;-73
2024/02/19 04:52:10;;;;;;;;;10.50;8.75;;;;;-143.90;100.00;76760.28;4961184;28;101914;-73
2024/02/19 04:54:36;;;;;;;;;13.33;11.33;;;;;-143.90;100.00;76747.88;4946403;28;102193;-73
2024/02/19 04:57:04;;;;;;;;;12.33;11.67;;;;;-143.90;100.00;76745.81;4965476;28;107708;-73
2024/02/19 04:59:31;;;;;;;;;8.67;8.33;;;;;-143.90;100.00;76735.47;4950488;28;101904;-74
2024/02/19 05:01:59;;;;;;;;;11.00;9.00;;;;;-143.90;100.00;76727.22;4920160;28;102081;-73
2024/02/19 05:04:26;;;;;;;;;13.75;12.50;;;;;-143.90;100.00;76723.06;4941535;28;108743;-73
2024/02/19 05:06:53;;;;;;;;;18.25;13.00;;;;;-143.90;100.00;76704.47;4921840;28;103331;-73
2024/02/19 05:09:20;;;;;;;;;18.75;12.75;;;;;-143.90;100.00;76694.13;4955573;28;101699;-73
2024/02/19 05:11:47;;;;;;;;;10.33;9.67;;;;;-143.90;100.00;76692.03;4938517;28;101759;-73
2024/02/19 05:14:13;;;;;;;;;18.50;10.00;;;;;-143.90;100.00;76677.56;4952831;28;101502;-73
2024/02/19 05:16:40;;;;;;;;;20.33;17.67;;;;;-143.90;100.00;76671.38;4962667;28;103488;-73
2024/02/19 05:19:07;;;;;;;;;35.67;24.00;;;;;-143.90;100.00;76675.50;4955342;27;104365;-74
2024/02/19 05:21:38;;;;;;;;;29.33;23.67;;;;;-143.90;100.00;76650.69;4952221;28;102492;-73
2024/02/19 05:24:05;;;;;;;;;27.33;23.67;;;;;-143.90;100.00;76656.88;4951587;28;102037;-73
2024/02/19 05:26:32;;;;;;;;;60.33;43.00;;;;;-143.90;100.00;76706.53;4973346;28;108116;-74
2024/02/19 05:28:59;;;;;;;;;57.67;45.00;;;;;-143.90;100.00;76735.47;4961959;28;102255;-74
2024/02/19 05:31:44;;;;;;;;;45.00;37.33;;;;;-143.90;100.00;76760.28;4942098;28;102438;-72
2024/02/19 05:34:10;;;;;;;;;67.67;49.00;;;;;-143.90;100.00;76809.94;4956401;28;103736;-73
2024/02/19 05:36:37;;;;;;;;;61.33;47.33;;;;;-143.90;100.00;76797.53;4925902;28;103319;-73
2024/02/19 05:39:05;;;;;;;;;49.33;44.00;;;;;-143.90;100.00;76789.25;4948329;28;101764;-74
2024/02/19 05:41:32;;;;;;;;;42.33;31.00;;;;;-143.90;100.00;76774.78;4954432;28;101874;-74
2024/02/19 05:43:59;;;;;;;;;49.00;41.00;;;;;-143.90;100.00;76778.91;4945812;28;103088;-74
2024/02/19 05:46:25;;;;;;;;;44.67;29.67;;;;;-143.90;100.00;76783.03;4961994;28;103647;-74
2024/02/19 05:48:53;;;;;;;;;47.00;36.00;;;;;-143.90;100.00;76770.63;4944998;28;101603;-74
2024/02/19 05:51:20;;;;;;;;;36.00;34.00;;;;;-143.90;100.00;76770.63;4956883;27;101743;-74
2024/02/19 05:53:48;;;;;;;;;31.67;27.33;;;;;-143.90;100.00;76768.56;4928066;28;101965;-74
2024/02/19 05:56:15;;;;;;;;;30.67;27.33;;;;;-143.90;100.00;76766.50;4955323;28;103495;-74
2024/02/19 05:58:41;;;;;;;;;32.67;30.33;;;;;-143.90;100.00;76768.56;4963295;28;102110;-74
2024/02/19 06:01:08;;;;;;;;;41.67;38.00;;;;;-143.90;100.00;76772.72;4956354;28;102333;-74
2024/02/19 06:03:38;;;;;;;;;38.33;27.00;;;;;-143.90;100.00;76758.22;4964288;28;101826;-73
2024/02/19 06:06:05;;;;;;;;;27.67;24.00;;;;;-143.90;100.00;76745.81;4975913;28;103426;-73
2024/02/19 06:08:31;;;;;;;;;19.33;17.00;;;;;-143.90;100.00;76729.28;4964881;28;102194;-74
2024/02/19 06:10:59;;;;;;;;;29.67;27.33;;;;;-143.90;100.00;76723.06;4962011;28;101694;-74
2024/02/19 06:13:26;;;;;;;;;28.33;23.00;;;;;-143.90;100.00;76710.66;4966312;28;102421;-74
2024/02/19 06:15:52;;;;;;;;;54.33;45.00;;;;;-143.90;100.00;76714.78;4957469;28;103105;-74
2024/02/19 06:18:19;;;;;;;;;42.00;33.00;;;;;-143.90;100.00;76702.38;4963593;28;101903;-74
2024/02/19 06:20:47;;;;;;;;;48.00;34.67;;;;;-143.90;100.00;76689.97;4964558;28;101644;-74
2024/02/19 06:23:14;;;;;;;;;34.67;28.33;;;;;-143.90;100.00;76685.84;4963951;28;101525;-74
2024/02/19 06:25:43;;;;;;;;;31.67;27.67;;;;;-143.90;100.00;76677.56;4956995;28;103297;-74
2024/02/19 06:28:10;;;;;;;;;48.00;32.00;;;;;-143.90;100.00;76677.56;4978963;28;102274;-74
2024/02/19 06:30:36;;;;;;;;;42.67;31.67;;;;;-143.90;100.00;76673.44;4962832;28;101876;-74
2024/02/19 06:33:04;;;;;;;;;27.33;23.67;;;;;-143.90;100.00;76656.88;4965181;28;102090;-75
2024/02/19 06:35:30;;;;;;;;;34.00;26.33;;;;;-143.90;100.00;76652.75;4964007;28;103333;-74
2024/02/19 06:37:57;;;;;;;;;20.67;16.00;;;;;-143.90;100.00;76640.34;4959082;28;101938;-74
2024/02/19 06:40:24;;;;;;;;;19.67;15.33;;;;;-143.90;100.00;76630.00;4964749;28;103195;-74
2024/02/19 06:42:51;;;;;;;;;19.00;13.33;;;;;-143.90;100.00;76621.72;4965553;28;101896;-74
2024/02/19 06:45:20;;;;;;;;;19.00;16.00;;;;;-143.90;100.00;76607.25;4963854;28;103361;-74
2024/02/19 06:47:47;;;;;;;;;26.67;24.33;;;;;-143.90;100.00;76598.97;4962390;28;102230;-74
2024/02/19 06:50:14;;;;;;;;;35.00;24.67;;;;;-143.90;100.00;76596.91;4967194;28;101843;-74
2024/02/19 06:52:44;;;;;;;;;28.33;24.67;;;;;-143.90;100.00;76594.84;4965880;28;101613;-76
2024/02/19 06:55:15;;;;;;;;;24.67;22.33;;;;;-143.90;100.00;76578.31;4964360;28;103584;-75
2024/02/19 06:57:43;;;;;;;;;25.67;24.33;;;;;-143.90;100.00;76570.03;4960705;28;101820;-74
2024/02/19 07:00:10;;;;;;;;;27.00;20.67;;;;;-143.90;100.00;76553.47;4965120;28;101579;-75
2024/02/19 07:02:38;;;;;;;;;24.33;21.67;;;;;-143.90;100.00;76545.22;4967712;28;101630;-75
2024/02/19 07:05:06;;;;;;;;;21.67;21.00;;;;;-143.90;100.00;76536.94;4964990;28;103488;-75
2024/02/19 07:07:34;;;;;;;;;17.33;16.33;;;;;-143.90;100.00;76522.47;4967310;28;104804;-75
2024/02/19 07:10:02;;;;;;;;;19.25;14.25;;;;;-143.90;100.00;76512.13;4960508;28;101963;-75
2024/02/19 07:12:28;;;;;;;;;26.00;21.33;;;;;-143.90;100.00;76491.44;4962667;28;101921;-75
2024/02/19 07:14:55;;;;;;;;;32.33;26.67;;;;;-143.90;100.00;76485.22;4964012;28;103450;-75
2024/02/19 07:17:22;;;;;;;;;29.00;22.00;;;;;-143.90;100.00;76468.69;4965556;28;101699;-75
2024/02/19 07:19:50;;;;;;;;;27.67;22.67;;;;;-143.90;100.00;76454.22;4971787;28;101493;-75
2024/02/19 07:22:17;;;;;;;;;27.33;25.67;;;;;-143.90;100.00;76441.81;4967637;28;102045;-75
2024/02/19 07:24:44;;;;;;;;;35.67;30.33;;;;;-143.90;100.00;76429.41;4963720;28;108007;-75
2024/02/19 07:27:10;;;;;;;;;30.00;23.33;;;;;-143.90;100.00;76414.91;4962626;28;102074;-74
2024/02/19 07:29:37;;;;;;;;;33.67;26.00;;;;;-143.90;100.00;76410.78;4960959;28;101832;-74
2024/02/19 07:32:04;;;;;;;;;33.00;26.00;;;;;-143.90;100.00;76400.44;4959114;28;101932;-74
2024/02/19 07:34:30;;;;;;;;;30.67;25.67;;;;;-143.90;100.00;76392.16;4963425;27;103637;-73
2024/02/19 07:36:57;;;;;;;;;25.33;23.33;;;;;-143.90;100.00;76379.75;4964092;28;101825;-75
2024/02/19 07:39:24;;;;;;;;;33.00;25.00;;;;;-143.90;100.00;76367.34;4964310;28;101734;-75
2024/02/19 07:41:50;;;;;;;;;27.00;23.33;;;;;-143.90;100.00;76350.81;4957245;28;102086;-75
2024/02/19 07:44:17;;;;;;;;;29.00;26.00;;;;;-143.90;100.00;76338.41;4965331;28;103393;-75
2024/02/19 07:46:44;;;;;;;;;40.67;33.67;;;;;-143.90;100.00;76330.13;4962752;28;102106;-74
2024/02/19 07:49:10;;;;;;;;;29.00;27.00;;;;;-143.90;100.00;76321.84;4977833;28;102097;-75
2024/02/19 07:51:37;;;;;;;;;32.75;27.25;;;;;-143.90;100.00;76303.25;4962045;28;101912;-74
2024/02/19 07:54:04;;;;;;;;;32.75;29.25;;;;;-143.90;100.00;76305.31;4960660;28;103607;-74
2024/02/19 07:56:32;;;;;;;;;40.67;32.00;;;;;-143.90;100.00;76297.03;4966560;28;101848;-75
2024/02/19 07:58:58;;;;;;;;;36.00;33.33;;;;;-143.90;100.00;76301.19;4863392;28;103935;-74
2024/02/19 08:01:25;;;;;;;;;28.75;27.75;;;;;-143.90;100.00;76305.31;4965335;28;101773;-75
2024/02/19 08:03:52;;;;;;;;;30.25;26.75;;;;;-143.90;100.00;76292.91;4958482;28;103432;-74
2024/02/19 08:06:18;;;;;;;;;34.25;27.75;;;;;-143.90;100.00;76288.78;4964993;28;102300;-74
2024/02/19 08:08:45;;;;;;;;;26.25;21.50;;;;;-143.90;100.00;76288.78;4965388;28;101742;-74
2024/02/19 08:11:13;;;;;;;;;31.00;26.25;;;;;-143.90;100.00;76274.28;4964996;28;101580;-74
2024/02/19 08:13:42;;;;;;;;;25.25;22.75;;;;;-143.90;100.00;76270.16;4961597;28;103307;-74
2024/02/19 08:16:10;;;;;;;;;35.00;26.00;;;;;-143.90;100.00;76255.69;4964530;28;106289;-75
2024/02/19 08:18:37;;;;;;;;;31.75;22.00;;;;;-143.90;100.00;76251.53;4963976;28;101673;-74
2024/02/19 08:21:04;;;;;;;;;25.50;25.50;;;;;-143.90;100.00;76247.41;4963716;28;101789;-74
2024/02/19 08:23:31;;;;;;;;;24.50;20.75;;;;;-143.90;100.00;76243.28;4962920;28;103602;-74
2024/02/19 08:25:59;;;;;;;;;27.25;22.25;;;;;-143.90;100.00;76232.94;4948864;28;102828;-74
2024/02/19 08:28:25;;;;;;;;;28.00;21.50;;;;;-143.90;100.00;76230.88;4988923;28;101531;-73
2024/02/19 08:30:52;;;;;;;;;25.00;23.50;;;;;-143.90;100.00;76224.66;4957919;28;101902;-74
2024/02/19 08:33:19;;;;;;;;;21.25;19.25;;;;;-143.90;100.00;76216.41;4945583;28;103404;-75
2024/02/19 08:35:46;;;;;;;;;19.50;18.25;;;;;-143.90;100.00;76214.31;4975482;28;102083;-75
2024/02/19 08:38:13;;;;;;;;;28.25;22.25;;;;;-143.90;100.00;76203.97;4958048;28;101660;-74
2024/02/19 08:40:39;;;;;;;;;28.25;22.00;;;;;-143.90;100.00;76201.91;4963341;28;103192;-74
2024/02/19 08:43:10;;;;;;;;;26.50;24.75;;;;;-143.90;100.00;76187.44;4959231;28;103779;-74
2024/02/19 08:45:39;;;;;;;;;28.00;24.00;;;;;-143.90;100.00;76168.81;4961966;28;101603;-74
2024/02/19 08:48:07;;;;;;;;;26.50;24.50;;;;;-143.90;100.00;76156.41;4956506;28;102085;-75
2024/02/19 08:50:35;;;;;;;;;33.00;26.50;;;;;-143.90;100.00;76141.94;4961188;28;101914;-74
2024/02/19 08:53:02;;;;;;;;;28.00;25.00;;;;;-143.90;100.00;76135.75;4963499;28;103939;-74
2024/02/19 08:55:30;;;;;;;;;32.50;25.50;;;;;-143.90;100.00;76137.81;4959465;28;101954;-75
2024/02/19 08:57:57;;;;;;;;;32.25;27.75;;;;;-143.90;100.00;76135.75;4954595;28;104574;-74
2024/02/19 09:00:24;;;;;;;;;28.50;24.75;;;;;-143.90;100.00;76131.59;4960880;28;101605;-75
2024/02/19 09:02:50;;;;;;;;;35.75;29.25;;;;;-143.90;100.00;76135.75;4963271;28;103389;-73
2024/02/19 09:05:19;;;;;;;;;34.00;30.75;;;;;-143.90;100.00;76127.47;4962664;28;102208;-73
2024/02/19 09:07:47;;;;;;;;;32.25;27.25;;;;;-143.90;100.00;76115.06;4955523;28;101728;-73
2024/02/19 09:10:14;;;;;;;;;33.25;26.25;;;;;-143.90;100.00;76108.84;4964574;28;102335;-73
2024/02/19 09:12:41;;;;;;;;;25.75;22.75;;;;;-143.90;100.00;76090.25;4961071;28;103423;-74
2024/02/19 09:15:08;;;;;;;;;23.25;18.50;;;;;-143.90;100.00;76069.56;4966396;28;101963;-74
2024/02/19 09:17:44;;;;;;;;;22.83;20.17;;;;;-143.90;100.00;76053.03;4954641;28;10000796;-75
2024/02/19 09:20:11;;;;;;;;;30.75;26.00;;;;;-143.90;100.00;76044.75;4962271;28;102078;-74
2024/02/19 09:22:41;;;;;;;;;34.50;27.00;;;;;-143.90;100.00;76028.22;4961148;28;102055;-74
2024/02/19 09:25:08;;;;;;;;;28.75;24.00;;;;;-143.90;100.00;76001.34;4961523;28;101802;-74
2024/02/19 09:27:38;;;;;;;;;30.75;26.75;;;;;-143.90;100.00;75982.72;4962183;28;102650;-75
2024/02/19 09:30:07;;;;;;;;;27.75;20.50;;;;;-143.90;100.00;75949.63;4957486;28;103267;-74
2024/02/19 09:32:34;;;;;;;;;38.50;29.75;;;;;-143.90;100.00;75933.09;4966034;28;101877;-74
2024/02/19 09:35:11;;;;;;;;;36.00;26.50;;;;;-143.90;100.00;75912.41;4963740;28;102170;-74
2024/02/19 09:37:38;;;;;;;;;28.75;19.25;;;;;-143.90;100.00;75897.94;4961598;28;101862;-74
2024/02/19 09:40:06;;;;;;;;;30.00;26.00;;;;;-143.90;100.00;75862.78;4957375;28;103732;-74
2024/02/19 09:42:35;;;;;;;;;34.00;23.25;;;;;-143.90;100.00;75854.53;4961395;28;101652;-74
2024/02/19 09:45:02;;;;;;;;;19.75;16.75;;;;;-143.90;100.00;75835.91;4974046;28;102083;-75
2024/02/19 09:47:31;;;;;;;;;18.25;16.00;;;;;-143.90;100.00;75809.03;4958613;28;101657;-75
2024/02/19 09:49:59;;;;;;;;;23.00;17.25;;;;;-143.90;100.00;75792.50;4955132;28;103485;-74
2024/02/19 09:52:26;;;;;;;;;29.50;25.00;;;;;-143.90;100.00;75767.69;4956117;28;101785;-74
2024/02/19 09:54:56;;;;;;;;;34.75;30.25;;;;;-143.90;100.00;75761.47;4960234;28;101710;-80
2024/02/19 09:57:25;;;;;;;;;18.75;14.00;;;;;-143.90;100.00;75722.19;4933853;28;102887;-75
2024/02/19 09:59:53;;;;;;;;;36.25;31.00;;;;;-143.90;100.00;75689.09;4975898;28;103421;-76
2024/02/19 10:02:22;;;;;;;;;31.25;25.25;;;;;-143.90;100.00;75643.63;4943964;28;106158;-75
2024/02/19 10:04:49;;;;;;;;;31.75;26.50;;;;;-143.90;100.00;75612.59;4952974;28;101985;-75
2024/02/19 10:07:18;;;;;;;;;29.75;26.50;;;;;-143.90;100.00;75589.84;4969162;28;102036;-75
2024/02/19 10:09:47;;;;;;;;;36.00;31.25;;;;;-143.90;100.00;75579.53;4959050;28;104620;-76
2024/02/19 10:12:14;;;;;;;;;36.00;27.75;;;;;-143.90;100.00;75548.50;4957983;28;101707;-76
2024/02/19 10:14:40;;;;;;;;;30.50;28.25;;;;;-143.90;100.00;75536.09;4954419;27;102011;-78
2024/02/19 10:17:07;;;;;;;;;30.75;27.75;;;;;-143.90;100.00;75531.97;4959338;28;101857;-74
2024/02/19 10:19:36;;;;;;;;;32.50;28.50;;;;;-143.90;100.00;75538.16;4942777;28;103387;-75
2024/02/19 10:22:02;;;;;;;;;32.00;27.25;;;;;-143.90;100.00;75534.03;4894174;28;103002;-76
2024/02/19 10:24:30;;;;;;;;;31.75;27.75;;;;;-143.90;100.00;75552.63;4935178;28;102384;-77
2024/02/19 10:26:57;;;;;;;;;32.00;29.00;;;;;-143.90;100.00;75536.09;4954041;27;101984;-74
2024/02/19 10:29:27;;;;;;;;;30.50;25.00;;;;;-143.90;100.00;75536.09;4953747;28;103991;-75
2024/02/19 10:31:56;;;;;;;;;27.25;25.00;;;;;-143.90;100.00;75527.81;4959893;28;102911;-74
2024/02/19 10:34:23;;;;;;;;;28.75;25.75;;;;;-143.90;100.00;75536.09;4935130;28;101491;-74
2024/02/19 10:36:50;;;;;;;;;30.00;24.00;;;;;-143.90;100.00;75540.22;4990393;28;101702;-74
2024/02/19 10:39:17;;;;;;;;;28.00;25.25;;;;;-143.90;100.00;75567.13;4941352;28;103439;-74
2024/02/19 10:41:43;;;;;;;;;27.25;25.50;;;;;-143.90;100.00;75560.91;4954945;28;102479;-74
2024/02/19 10:44:11;;;;;;;;;20.25;18.00;;;;;-143.90;100.00;75575.38;4942404;28;102785;-74
2024/02/19 10:46:39;;;;;;;;;23.00;19.25;;;;;-143.90;100.00;75569.19;4946583;28;102442;-73